createdAt,value
2017-03-21T00:00:12.084Z,0
2017-03-21T00:00:52.590Z,0
2017-03-21T00:03:05.302Z,0
2017-03-21T00:03:45.787Z,0
2017-03-21T00:04:26.281Z,0
2017-03-21T00:05:06.764Z,0
2017-03-21T00:05:47.250Z,0
2017-03-21T00:06:27.728Z,0
2017-03-21T00:07:08.221Z,0
2017-03-21T00:07:48.703Z,0
2017-03-21T00:08:29.200Z,0
2017-03-21T00:09:09.675Z,0
2017-03-21T00:09:50.173Z,0
2017-03-21T00:10:30.644Z,0
2017-03-21T00:11:11.109Z,0
2017-03-21T00:11:51.603Z,0
2017-03-21T00:12:32.076Z,0
2017-03-21T00:13:12.575Z,0
2017-03-21T00:13:53.067Z,0
2017-03-21T00:14:33.553Z,0
2017-03-21T00:15:14.044Z,0
2017-03-21T00:15:54.527Z,0
2017-03-21T00:16:35.022Z,0
2017-03-21T00:17:15.510Z,0
2017-03-21T00:17:55.990Z,0
2017-03-21T00:18:36.478Z,0
2017-03-21T00:19:16.973Z,0
2017-03-21T00:19:57.444Z,0
2017-03-21T00:20:37.924Z,0
2017-03-21T00:21:18.393Z,0
2017-03-21T00:21:58.891Z,0
2017-03-21T00:22:39.365Z,0
2017-03-21T00:23:19.847Z,0
2017-03-21T00:24:00.336Z,0
2017-03-21T00:24:40.824Z,0
2017-03-21T00:25:21.333Z,0
2017-03-21T00:26:01.851Z,0
2017-03-21T00:26:42.341Z,0
2017-03-21T00:27:22.844Z,0
2017-03-21T00:28:03.327Z,0
2017-03-21T00:28:43.814Z,0
2017-03-21T00:29:24.291Z,0
2017-03-21T00:30:04.735Z,0
2017-03-21T00:30:45.205Z,0
2017-03-21T00:31:25.661Z,0
2017-03-21T00:32:06.140Z,0
2017-03-21T00:32:46.656Z,0
2017-03-21T00:33:27.140Z,0
2017-03-21T00:34:07.632Z,0
2017-03-21T00:34:48.104Z,0
2017-03-21T00:35:28.614Z,0
2017-03-21T00:36:09.064Z,0
2017-03-21T00:36:49.538Z,0
2017-03-21T00:37:30.029Z,0
2017-03-21T00:38:10.515Z,0
2017-03-21T00:38:50.988Z,0
2017-03-21T00:39:31.472Z,0
2017-03-21T00:40:11.934Z,0
2017-03-21T00:40:52.420Z,0
2017-03-21T00:41:32.895Z,0
2017-03-21T00:42:13.382Z,0
2017-03-21T00:42:53.862Z,0
2017-03-21T00:43:34.357Z,0
2017-03-21T00:44:14.847Z,0
2017-03-21T00:44:55.340Z,0
2017-03-21T00:45:35.819Z,0
2017-03-21T00:46:16.305Z,0
2017-03-21T00:46:56.780Z,0
2017-03-21T00:47:37.258Z,0
2017-03-21T00:48:17.734Z,0
2017-03-21T00:48:58.226Z,0
2017-03-21T00:49:38.715Z,0
2017-03-21T00:50:19.190Z,0
2017-03-21T00:50:59.665Z,0
2017-03-21T00:51:40.159Z,0
2017-03-21T00:52:20.651Z,0
2017-03-21T00:53:01.143Z,0
2017-03-21T00:53:41.641Z,0
2017-03-21T00:54:22.100Z,0
2017-03-21T00:55:02.596Z,0
2017-03-21T00:55:43.059Z,0
2017-03-21T00:56:23.543Z,0
2017-03-21T00:57:04.019Z,0
2017-03-21T00:57:44.521Z,0
2017-03-21T00:58:24.986Z,0
2017-03-21T00:59:05.459Z,0
2017-03-21T00:59:45.955Z,0
2017-03-21T01:00:26.455Z,0
2017-03-21T01:01:06.948Z,0
2017-03-21T01:01:47.444Z,0
2017-03-21T01:02:27.922Z,0
2017-03-21T01:03:08.393Z,0
2017-03-21T01:03:48.863Z,0
2017-03-21T01:04:29.332Z,0
2017-03-21T01:05:09.805Z,0
2017-03-21T01:05:50.295Z,0
2017-03-21T01:06:30.788Z,0
2017-03-21T01:07:11.263Z,0
2017-03-21T01:07:51.728Z,0
2017-03-21T01:08:32.227Z,0
2017-03-21T01:09:12.719Z,0
2017-03-21T01:09:53.194Z,0
2017-03-21T01:10:33.668Z,0
2017-03-21T01:11:14.174Z,0
2017-03-21T01:11:54.660Z,0
2017-03-21T01:12:35.149Z,0
2017-03-21T01:13:15.642Z,0
2017-03-21T01:13:56.132Z,0
2017-03-21T01:14:36.626Z,0
2017-03-21T01:15:17.119Z,0
2017-03-21T01:15:57.625Z,0
2017-03-21T01:16:38.090Z,0
2017-03-21T01:17:18.576Z,0
2017-03-21T01:17:59.092Z,0
2017-03-21T01:18:39.518Z,0
2017-03-21T01:19:20.131Z,0
2017-03-21T01:20:00.602Z,0
2017-03-21T01:20:41.091Z,0
2017-03-21T01:21:21.575Z,0
2017-03-21T01:22:02.067Z,0
2017-03-21T01:22:42.570Z,0
2017-03-21T01:23:23.060Z,0
2017-03-21T01:24:03.554Z,0
2017-03-21T01:24:44.045Z,0
2017-03-21T01:25:24.534Z,0
2017-03-21T01:26:05.044Z,0
2017-03-21T01:26:45.505Z,0
2017-03-21T01:27:26.002Z,0
2017-03-21T01:28:06.495Z,0
2017-03-21T01:28:46.964Z,0
2017-03-21T01:29:27.421Z,0
2017-03-21T01:30:07.917Z,0
2017-03-21T01:30:48.424Z,0
2017-03-21T01:31:28.881Z,0
2017-03-21T01:32:09.361Z,0
2017-03-21T01:32:49.861Z,0
2017-03-21T01:33:30.354Z,0
2017-03-21T01:34:10.834Z,0
2017-03-21T01:34:51.342Z,0
2017-03-21T01:35:31.818Z,0
2017-03-21T01:36:12.335Z,0
2017-03-21T01:36:52.805Z,0
2017-03-21T01:37:33.285Z,0
2017-03-21T01:38:13.752Z,0
2017-03-21T01:38:54.229Z,0
2017-03-21T01:39:34.722Z,0
2017-03-21T01:40:15.227Z,0
2017-03-21T01:40:55.720Z,0
2017-03-21T01:41:36.208Z,0
2017-03-21T01:42:16.704Z,0
2017-03-21T01:42:57.193Z,0
2017-03-21T01:43:37.675Z,0
2017-03-21T01:44:18.185Z,0
2017-03-21T01:44:58.658Z,0
2017-03-21T01:45:39.124Z,0
2017-03-21T01:46:19.587Z,0
2017-03-21T01:47:00.090Z,0
2017-03-21T01:47:40.576Z,0
2017-03-21T01:48:21.058Z,0
2017-03-21T01:49:01.569Z,0
2017-03-21T01:49:42.051Z,0
2017-03-21T01:50:22.527Z,0
2017-03-21T01:51:03.006Z,0
2017-03-21T01:51:43.458Z,0
2017-03-21T01:52:23.912Z,0
2017-03-21T01:53:04.359Z,0
2017-03-21T01:53:44.814Z,0
2017-03-21T01:54:25.285Z,0
2017-03-21T01:55:05.755Z,0
2017-03-21T01:55:46.208Z,0
2017-03-21T01:56:26.665Z,0
2017-03-21T01:57:07.137Z,0
2017-03-21T01:57:47.588Z,0
2017-03-21T01:58:28.047Z,0
2017-03-21T01:59:08.490Z,0
2017-03-21T01:59:48.927Z,0
2017-03-21T02:00:29.382Z,0
2017-03-21T02:01:09.835Z,0
2017-03-21T02:01:50.288Z,0
2017-03-21T02:02:30.742Z,0
2017-03-21T02:03:11.163Z,0
2017-03-21T02:05:39.117Z,0
2017-03-21T02:06:19.589Z,0
2017-03-21T02:07:00.073Z,0
2017-03-21T02:07:40.569Z,0
2017-03-21T02:08:21.056Z,0
2017-03-21T02:09:01.528Z,0
2017-03-21T02:09:42.007Z,0
2017-03-21T02:10:22.511Z,0
2017-03-21T02:11:02.999Z,0
2017-03-21T02:11:43.494Z,0
2017-03-21T02:12:23.982Z,0
2017-03-21T02:13:04.483Z,0
2017-03-21T02:13:44.934Z,0
2017-03-21T02:14:25.419Z,0
2017-03-21T02:15:05.889Z,0
2017-03-21T02:15:46.375Z,0
2017-03-21T02:16:26.860Z,0
2017-03-21T02:17:07.348Z,0
2017-03-21T02:17:47.833Z,0
2017-03-21T02:18:28.320Z,0
2017-03-21T02:19:08.825Z,0
2017-03-21T02:19:49.318Z,0
2017-03-21T02:20:29.841Z,0
2017-03-21T02:21:10.299Z,0
2017-03-21T02:21:50.765Z,0
2017-03-21T02:22:31.254Z,0
2017-03-21T02:23:11.754Z,0
2017-03-21T02:23:52.246Z,0
2017-03-21T02:24:32.716Z,0
2017-03-21T02:25:13.228Z,0
2017-03-21T02:25:53.701Z,0
2017-03-21T02:26:34.174Z,0
2017-03-21T02:27:14.638Z,0
2017-03-21T02:27:55.123Z,0
2017-03-21T02:28:35.616Z,0
2017-03-21T02:29:16.095Z,0
2017-03-21T02:29:56.559Z,0
2017-03-21T02:30:37.014Z,0
2017-03-21T02:31:17.448Z,0
2017-03-21T02:31:57.936Z,0
2017-03-21T02:32:38.413Z,0
2017-03-21T02:33:18.903Z,0
2017-03-21T02:33:59.387Z,0
2017-03-21T02:34:39.874Z,0
2017-03-21T02:35:20.336Z,0
2017-03-21T02:36:00.825Z,0
2017-03-21T02:36:41.325Z,0
2017-03-21T02:37:21.839Z,0
2017-03-21T02:38:02.327Z,0
2017-03-21T02:38:42.815Z,0
2017-03-21T02:39:23.292Z,0
2017-03-21T02:40:03.764Z,0
2017-03-21T02:40:44.252Z,0
2017-03-21T02:41:24.740Z,0
2017-03-21T02:42:05.233Z,0
2017-03-21T02:42:45.711Z,0
2017-03-21T02:43:26.192Z,0
2017-03-21T02:44:06.699Z,0
2017-03-21T02:44:47.141Z,0
2017-03-21T02:45:27.617Z,0
2017-03-21T02:46:08.080Z,0
2017-03-21T02:46:48.579Z,0
2017-03-21T02:47:29.055Z,0
2017-03-21T02:48:09.535Z,0
2017-03-21T02:48:50.011Z,0
2017-03-21T02:49:30.472Z,0
2017-03-21T02:50:10.958Z,0
2017-03-21T02:50:51.462Z,0
2017-03-21T02:51:31.942Z,0
2017-03-21T02:52:12.422Z,0
2017-03-21T02:52:52.941Z,0
2017-03-21T02:53:33.421Z,0
2017-03-21T02:54:13.897Z,0
2017-03-21T02:54:54.367Z,0
2017-03-21T02:55:34.864Z,0
2017-03-21T02:56:15.350Z,0
2017-03-21T02:56:55.820Z,0
2017-03-21T02:57:36.279Z,0
2017-03-21T02:58:16.779Z,0
2017-03-21T02:58:57.271Z,0
2017-03-21T02:59:37.753Z,0
2017-03-21T03:00:18.239Z,0
2017-03-21T03:00:58.739Z,0
2017-03-21T03:01:39.225Z,0
2017-03-21T03:02:19.690Z,0
2017-03-21T03:03:00.196Z,0
2017-03-21T03:03:40.686Z,0
2017-03-21T03:04:21.165Z,0
2017-03-21T03:05:01.639Z,0
2017-03-21T03:05:42.130Z,0
2017-03-21T03:06:22.618Z,0
2017-03-21T03:07:03.090Z,0
2017-03-21T03:07:43.577Z,0
2017-03-21T03:08:24.074Z,0
2017-03-21T03:09:04.573Z,0
2017-03-21T03:09:45.037Z,0
2017-03-21T03:10:25.528Z,0
2017-03-21T03:11:06.006Z,0
2017-03-21T03:11:46.501Z,0
2017-03-21T03:12:26.983Z,0
2017-03-21T03:13:07.434Z,0
2017-03-21T03:13:47.897Z,0
2017-03-21T03:14:28.357Z,0
2017-03-21T03:15:08.836Z,0
2017-03-21T03:15:49.322Z,0
2017-03-21T03:16:29.811Z,0
2017-03-21T03:17:10.281Z,0
2017-03-21T03:17:50.757Z,0
2017-03-21T03:18:31.243Z,0
2017-03-21T03:19:11.728Z,0
2017-03-21T03:19:52.227Z,0
2017-03-21T03:20:32.726Z,0
2017-03-21T03:21:13.203Z,0
2017-03-21T03:21:53.682Z,0
2017-03-21T03:22:34.151Z,0
2017-03-21T03:23:14.640Z,0
2017-03-21T03:23:55.136Z,0
2017-03-21T03:24:35.607Z,0
2017-03-21T03:26:53.397Z,0
2017-03-21T03:27:33.882Z,0
2017-03-21T03:28:14.386Z,0
2017-03-21T03:28:54.861Z,0
2017-03-21T03:29:35.353Z,0
2017-03-21T03:30:15.844Z,0
2017-03-21T03:30:56.321Z,0
2017-03-21T03:31:36.811Z,0
2017-03-21T03:32:17.303Z,0
2017-03-21T03:32:57.788Z,0
2017-03-21T03:33:38.265Z,0
2017-03-21T03:34:18.739Z,0
2017-03-21T03:34:59.224Z,0
2017-03-21T03:35:39.727Z,0
2017-03-21T03:36:20.220Z,0
2017-03-21T03:37:00.718Z,0
2017-03-21T03:37:41.211Z,0
2017-03-21T03:38:21.710Z,0
2017-03-21T03:39:02.196Z,0
2017-03-21T03:39:42.699Z,0
2017-03-21T03:40:23.170Z,0
2017-03-21T03:41:03.665Z,0
2017-03-21T03:41:44.168Z,0
2017-03-21T03:42:24.645Z,0
2017-03-21T03:43:05.151Z,0
2017-03-21T03:43:45.640Z,0
2017-03-21T03:46:03.439Z,0
2017-03-21T03:46:43.936Z,0
2017-03-21T03:47:24.423Z,0
2017-03-21T03:48:04.910Z,0
2017-03-21T03:48:45.396Z,0
2017-03-21T03:49:25.898Z,0
2017-03-21T03:50:06.385Z,0
2017-03-21T03:50:46.861Z,0
2017-03-21T03:51:27.368Z,0
2017-03-21T03:52:07.847Z,0
2017-03-21T03:52:48.320Z,0
2017-03-21T03:53:28.851Z,0
2017-03-21T03:54:09.285Z,0
2017-03-21T03:54:49.775Z,0
2017-03-21T03:55:30.254Z,0
2017-03-21T03:56:10.734Z,0
2017-03-21T03:56:51.222Z,0
2017-03-21T03:57:31.709Z,0
2017-03-21T03:58:12.184Z,0
2017-03-21T03:58:52.653Z,0
2017-03-21T03:59:33.162Z,0
2017-03-21T04:02:11.235Z,0
2017-03-21T04:02:51.716Z,0
2017-03-21T04:03:32.214Z,0
2017-03-21T04:04:12.706Z,0
2017-03-21T04:04:53.198Z,0
2017-03-21T04:05:33.691Z,0
2017-03-21T04:06:14.182Z,0
2017-03-21T04:06:54.660Z,0
2017-03-21T04:07:35.135Z,0
2017-03-21T04:08:15.633Z,0
2017-03-21T04:08:56.122Z,0
2017-03-21T04:09:36.618Z,0
2017-03-21T04:10:17.112Z,0
2017-03-21T04:10:57.602Z,0
2017-03-21T04:11:38.067Z,0
2017-03-21T04:12:18.559Z,0
2017-03-21T04:12:59.078Z,0
2017-03-21T04:13:39.533Z,0
2017-03-21T04:14:20.058Z,0
2017-03-21T04:15:00.500Z,0
2017-03-21T04:17:38.606Z,0
2017-03-21T04:18:19.115Z,0
2017-03-21T04:18:59.579Z,0
2017-03-21T04:19:40.066Z,0
2017-03-21T04:20:20.553Z,0
2017-03-21T04:21:01.060Z,0
2017-03-21T04:21:41.555Z,0
2017-03-21T04:22:22.040Z,0
2017-03-21T04:23:02.530Z,0
2017-03-21T04:23:43.016Z,0
2017-03-21T04:24:23.499Z,0
2017-03-21T04:25:03.971Z,0
2017-03-21T04:25:44.455Z,0
2017-03-21T04:26:24.963Z,0
2017-03-21T04:27:05.444Z,0
2017-03-21T04:27:45.926Z,0
2017-03-21T04:28:26.411Z,0
2017-03-21T04:29:06.883Z,0
2017-03-21T04:29:47.363Z,0
2017-03-21T04:30:27.849Z,0
2017-03-21T04:31:08.319Z,0
2017-03-21T04:31:48.825Z,0
2017-03-21T04:32:29.301Z,0
2017-03-21T04:33:09.778Z,0
2017-03-21T04:33:50.279Z,0
2017-03-21T04:34:30.753Z,0
2017-03-21T04:35:11.210Z,0
2017-03-21T04:35:51.686Z,0
2017-03-21T04:36:32.162Z,0
2017-03-21T04:37:12.671Z,0
2017-03-21T04:37:53.169Z,0
2017-03-21T04:38:33.651Z,0
2017-03-21T04:39:14.100Z,0
2017-03-21T04:39:54.645Z,0
2017-03-21T04:40:35.117Z,0
2017-03-21T04:41:15.599Z,0
2017-03-21T04:41:56.039Z,0
2017-03-21T04:42:36.524Z,0
2017-03-21T04:43:17.029Z,0
2017-03-21T04:43:57.528Z,0
2017-03-21T04:44:38.021Z,0
2017-03-21T04:45:18.508Z,0
2017-03-21T04:45:58.981Z,0
2017-03-21T04:46:39.452Z,0
2017-03-21T04:47:19.954Z,0
2017-03-21T04:48:00.441Z,0
2017-03-21T04:48:40.925Z,0
2017-03-21T04:49:21.434Z,0
2017-03-21T04:50:01.908Z,0
2017-03-21T04:50:42.374Z,0
2017-03-21T04:51:22.874Z,0
2017-03-21T04:52:03.371Z,0
2017-03-21T04:52:43.864Z,0
2017-03-21T04:53:24.333Z,0
2017-03-21T04:54:04.824Z,0
2017-03-21T04:54:45.332Z,0
2017-03-21T04:55:25.801Z,0
2017-03-21T04:56:06.289Z,0
2017-03-21T04:56:46.777Z,0
2017-03-21T04:57:27.270Z,0
2017-03-21T04:58:07.764Z,0
2017-03-21T04:58:48.256Z,0
2017-03-21T04:59:28.729Z,0
2017-03-21T05:00:09.210Z,0
2017-03-21T05:00:49.697Z,0
2017-03-21T05:01:30.197Z,0
2017-03-21T05:02:10.659Z,0
2017-03-21T05:02:51.148Z,0
2017-03-21T05:03:31.632Z,0
2017-03-21T05:04:12.127Z,0
2017-03-21T05:04:52.610Z,0
2017-03-21T05:05:33.113Z,0
2017-03-21T05:06:13.599Z,0
2017-03-21T05:06:54.097Z,0
2017-03-21T05:07:34.553Z,0
2017-03-21T05:08:15.050Z,0
2017-03-21T05:08:55.537Z,0
2017-03-21T05:09:36.020Z,0
2017-03-21T05:10:16.504Z,0
2017-03-21T05:10:56.985Z,0
2017-03-21T05:11:37.472Z,0
2017-03-21T05:12:17.950Z,0
2017-03-21T05:12:58.432Z,0
2017-03-21T05:13:38.903Z,0
2017-03-21T05:14:19.353Z,0
2017-03-21T05:16:37.153Z,0
2017-03-21T05:17:17.653Z,0
2017-03-21T05:17:58.136Z,0
2017-03-21T05:18:38.615Z,0
2017-03-21T05:19:19.106Z,0
2017-03-21T05:19:59.591Z,0
2017-03-21T05:20:40.077Z,0
2017-03-21T05:21:20.588Z,0
2017-03-21T05:22:01.080Z,0
2017-03-21T05:22:41.533Z,0
2017-03-21T05:23:22.022Z,0
2017-03-21T05:24:02.490Z,0
2017-03-21T05:24:42.977Z,0
2017-03-21T05:25:23.448Z,0
2017-03-21T05:26:03.986Z,0
2017-03-21T05:26:44.470Z,0
2017-03-21T05:27:24.945Z,0
2017-03-21T05:28:05.422Z,0
2017-03-21T05:28:45.896Z,0
2017-03-21T05:31:18.905Z,5
2017-03-21T05:31:59.377Z,5
2017-03-21T05:32:39.893Z,5
2017-03-21T05:33:20.384Z,5
2017-03-21T05:34:00.893Z,5
2017-03-21T05:34:41.377Z,5
2017-03-21T05:35:21.854Z,5
2017-03-21T05:36:02.334Z,5
2017-03-21T05:36:42.854Z,5
2017-03-21T05:37:23.472Z,5
2017-03-21T05:38:03.946Z,5
2017-03-21T05:38:44.427Z,5
2017-03-21T05:39:24.929Z,5
2017-03-21T05:40:05.406Z,10
2017-03-21T05:40:45.914Z,10
2017-03-21T05:41:26.406Z,10
2017-03-21T05:42:06.901Z,10
2017-03-21T05:42:47.389Z,10
2017-03-21T05:43:27.897Z,10
2017-03-21T05:44:08.379Z,10
2017-03-21T05:44:48.858Z,10
2017-03-21T05:45:29.352Z,10
2017-03-21T05:46:09.832Z,10
2017-03-21T05:46:50.314Z,15
2017-03-21T05:47:30.799Z,15
2017-03-21T05:48:11.286Z,15
2017-03-21T05:48:51.747Z,15
2017-03-21T05:49:32.247Z,15
2017-03-21T05:50:12.736Z,15
2017-03-21T05:50:53.193Z,15
2017-03-21T05:51:33.690Z,15
2017-03-21T05:52:14.184Z,20
2017-03-21T05:52:54.673Z,20
2017-03-21T05:53:35.155Z,20
2017-03-21T05:54:15.620Z,20
2017-03-21T05:54:56.119Z,20
2017-03-21T05:55:36.605Z,20
2017-03-21T05:56:17.098Z,20
2017-03-21T05:56:57.599Z,20
2017-03-21T05:57:38.081Z,20
2017-03-21T05:58:18.563Z,20
2017-03-21T05:58:59.037Z,20
2017-03-21T05:59:39.529Z,20
2017-03-21T06:00:19.999Z,20
2017-03-21T06:01:00.459Z,20
2017-03-21T06:01:40.902Z,25
2017-03-21T06:02:21.364Z,25
2017-03-21T06:03:01.847Z,25
2017-03-21T06:03:42.310Z,25
2017-03-21T06:04:22.767Z,25
2017-03-21T06:05:03.253Z,25
2017-03-21T06:05:43.761Z,25
2017-03-21T06:06:24.232Z,30
2017-03-21T06:07:04.713Z,30
2017-03-21T06:07:45.201Z,30
2017-03-21T06:08:25.690Z,30
2017-03-21T06:09:06.168Z,30
2017-03-21T06:09:46.639Z,30
2017-03-21T06:10:27.137Z,35
2017-03-21T06:11:07.622Z,35
2017-03-21T06:11:48.111Z,40
2017-03-21T06:12:28.573Z,40
2017-03-21T06:13:09.045Z,45
2017-03-21T06:13:49.560Z,45
2017-03-21T06:14:30.047Z,50
2017-03-21T06:15:10.519Z,50
2017-03-21T06:15:50.979Z,55
2017-03-21T06:16:31.516Z,60
2017-03-21T06:17:11.996Z,60
2017-03-21T06:17:52.478Z,65
2017-03-21T06:18:32.931Z,70
2017-03-21T06:19:13.397Z,75
2017-03-21T06:19:53.888Z,75
2017-03-21T06:20:34.378Z,75
2017-03-21T06:21:14.862Z,75
2017-03-21T06:21:55.381Z,75
2017-03-21T06:22:35.867Z,75
2017-03-21T06:23:16.352Z,75
2017-03-21T06:23:56.842Z,75
2017-03-21T06:24:37.316Z,80
2017-03-21T06:25:17.784Z,80
2017-03-21T06:25:58.270Z,80
2017-03-21T06:26:38.741Z,80
2017-03-21T06:27:19.235Z,80
2017-03-21T06:27:59.725Z,80
2017-03-21T06:28:40.199Z,85
2017-03-21T06:29:20.720Z,85
2017-03-21T06:30:01.141Z,90
2017-03-21T06:30:41.689Z,90
2017-03-21T06:31:22.161Z,90
2017-03-21T06:32:02.678Z,90
2017-03-21T06:32:43.174Z,90
2017-03-21T06:33:23.671Z,90
2017-03-21T06:34:04.144Z,90
2017-03-21T06:34:44.652Z,90
2017-03-21T06:35:25.141Z,90
2017-03-21T06:36:05.632Z,90
2017-03-21T06:36:46.121Z,90
2017-03-21T06:37:26.613Z,90
2017-03-21T06:38:07.098Z,90
2017-03-21T06:38:47.561Z,90
2017-03-21T06:39:28.042Z,90
2017-03-21T06:40:08.521Z,90
2017-03-21T06:40:49.020Z,90
2017-03-21T06:41:29.486Z,90
2017-03-21T06:42:09.983Z,90
2017-03-21T06:42:50.417Z,90
2017-03-21T06:43:30.890Z,95
2017-03-21T06:45:48.714Z,100
2017-03-21T06:46:29.201Z,100
2017-03-21T06:47:09.694Z,95
2017-03-21T06:47:50.194Z,95
2017-03-21T06:48:30.697Z,90
2017-03-21T06:49:11.173Z,90
2017-03-21T06:49:51.626Z,95
2017-03-21T06:50:32.130Z,100
2017-03-21T06:51:12.618Z,100
2017-03-21T06:51:53.114Z,105
2017-03-21T06:52:33.630Z,110
2017-03-21T06:53:14.112Z,110
2017-03-21T06:53:54.590Z,110
2017-03-21T06:54:35.083Z,105
2017-03-21T06:55:15.588Z,105
2017-03-21T06:55:56.028Z,100
2017-03-21T06:56:36.502Z,100
2017-03-21T06:57:16.987Z,100
2017-03-21T06:57:57.490Z,105
2017-03-21T06:58:37.977Z,105
2017-03-21T06:59:18.451Z,105
2017-03-21T06:59:58.933Z,105
2017-03-21T07:00:39.424Z,105
2017-03-21T07:01:19.903Z,105
2017-03-21T07:02:00.393Z,105
2017-03-21T07:02:40.891Z,110
2017-03-21T07:03:21.387Z,105
2017-03-21T07:04:01.921Z,105
2017-03-21T07:04:42.415Z,105
2017-03-21T07:05:22.889Z,105
2017-03-21T07:06:03.386Z,110
2017-03-21T07:06:43.860Z,110
2017-03-21T07:07:24.350Z,115
2017-03-21T07:08:04.857Z,115
2017-03-21T07:10:42.936Z,105
2017-03-21T07:11:23.405Z,105
2017-03-21T07:12:03.904Z,105
2017-03-21T07:12:44.376Z,105
2017-03-21T07:13:24.858Z,105
2017-03-21T07:14:05.344Z,105
2017-03-21T07:14:45.816Z,105
2017-03-21T07:15:26.311Z,105
2017-03-21T07:16:06.850Z,105
2017-03-21T07:16:47.333Z,105
2017-03-21T07:17:27.795Z,105
2017-03-21T07:18:08.535Z,110
2017-03-21T07:18:49.312Z,115
2017-03-21T07:19:30.036Z,120
2017-03-21T07:20:10.436Z,125
2017-03-21T07:20:50.912Z,130
2017-03-21T07:21:31.365Z,135
2017-03-21T07:23:49.762Z,135
2017-03-21T07:24:29.983Z,140
2017-03-21T07:25:10.459Z,130
2017-03-21T07:25:50.920Z,125
2017-03-21T07:26:31.381Z,125
2017-03-21T07:27:11.850Z,120
2017-03-21T07:27:52.346Z,120
2017-03-21T07:28:32.826Z,120
2017-03-21T07:29:13.350Z,125
2017-03-21T07:29:53.827Z,130
2017-03-21T07:30:34.325Z,140
2017-03-21T07:31:14.809Z,150
2017-03-21T07:31:55.278Z,160
2017-03-21T07:32:35.770Z,170
2017-03-21T07:33:16.255Z,175
2017-03-21T07:33:56.772Z,185
2017-03-21T07:34:37.241Z,190
2017-03-21T07:35:17.759Z,190
2017-03-21T07:35:58.241Z,195
2017-03-21T07:36:38.752Z,195
2017-03-21T07:37:19.254Z,195
2017-03-21T07:37:59.723Z,190
2017-03-21T07:38:40.275Z,190
2017-03-21T07:39:20.812Z,190
2017-03-21T07:40:01.269Z,190
2017-03-21T07:40:41.734Z,195
2017-03-21T07:41:22.325Z,195
2017-03-21T07:42:02.879Z,195
2017-03-21T07:42:43.333Z,200
2017-03-21T07:43:23.814Z,200
2017-03-21T07:44:04.306Z,200
2017-03-21T07:44:44.795Z,195
2017-03-21T07:45:25.280Z,195
2017-03-21T07:46:05.784Z,190
2017-03-21T07:46:46.266Z,180
2017-03-21T07:47:26.755Z,175
2017-03-21T07:48:07.263Z,170
2017-03-21T07:48:47.742Z,170
2017-03-21T07:49:28.235Z,170
2017-03-21T07:50:08.754Z,175
2017-03-21T07:50:49.236Z,175
2017-03-21T07:51:29.721Z,175
2017-03-21T07:52:10.208Z,175
2017-03-21T07:52:50.680Z,165
2017-03-21T07:53:31.156Z,155
2017-03-21T07:54:11.639Z,145
2017-03-21T07:54:52.129Z,130
2017-03-21T07:55:32.636Z,120
2017-03-21T07:56:13.126Z,115
2017-03-21T07:56:53.624Z,115
2017-03-21T07:57:34.113Z,110
2017-03-21T07:58:14.602Z,105
2017-03-21T07:58:55.708Z,110
2017-03-21T07:59:36.213Z,110
2017-03-21T08:00:16.683Z,110
2017-03-21T08:00:57.144Z,110
2017-03-21T08:01:37.653Z,115
2017-03-21T08:02:18.147Z,120
2017-03-21T08:02:58.707Z,125
2017-03-21T08:03:39.226Z,125
2017-03-21T08:04:19.754Z,130
2017-03-21T08:05:00.261Z,140
2017-03-21T08:05:40.773Z,145
2017-03-21T08:06:21.260Z,150
2017-03-21T08:07:01.756Z,155
2017-03-21T08:07:42.267Z,165
2017-03-21T08:08:22.714Z,170
2017-03-21T08:09:03.184Z,180
2017-03-21T08:09:43.708Z,185
2017-03-21T08:10:24.178Z,190
2017-03-21T08:12:36.926Z,185
2017-03-21T08:13:17.516Z,185
2017-03-21T08:13:58.006Z,185
2017-03-21T08:14:38.494Z,180
2017-03-21T08:15:19.041Z,185
2017-03-21T08:15:59.502Z,175
2017-03-21T08:16:40.025Z,175
2017-03-21T08:17:20.516Z,175
2017-03-21T08:18:00.996Z,170
2017-03-21T08:18:41.488Z,175
2017-03-21T08:19:21.963Z,175
2017-03-21T08:20:02.438Z,180
2017-03-21T08:20:42.925Z,185
2017-03-21T08:21:23.405Z,185
2017-03-21T08:22:03.883Z,185
2017-03-21T08:22:44.380Z,185
2017-03-21T08:23:24.860Z,185
2017-03-21T08:24:05.377Z,190
2017-03-21T08:24:45.876Z,195
2017-03-21T08:25:26.358Z,200
2017-03-21T08:26:06.851Z,205
2017-03-21T08:26:47.343Z,215
2017-03-21T08:27:28.035Z,220
2017-03-21T08:28:08.555Z,230
2017-03-21T08:28:49.025Z,235
2017-03-21T08:29:29.465Z,240
2017-03-21T08:30:10.002Z,235
2017-03-21T08:30:50.512Z,225
2017-03-21T08:31:30.955Z,215
2017-03-21T08:32:11.496Z,205
2017-03-21T08:32:51.912Z,200
2017-03-21T08:33:32.908Z,195
2017-03-21T08:34:13.372Z,195
2017-03-21T08:34:53.861Z,195
2017-03-21T08:35:34.486Z,190
2017-03-21T08:36:14.984Z,185
2017-03-21T08:36:55.434Z,180
2017-03-21T08:37:35.952Z,175
2017-03-21T08:38:16.452Z,175
2017-03-21T08:38:56.916Z,175
2017-03-21T08:39:37.436Z,180
2017-03-21T08:40:17.927Z,190
2017-03-21T08:40:58.440Z,200
2017-03-21T08:41:38.922Z,210
2017-03-21T08:42:19.444Z,230
2017-03-21T08:44:52.492Z,295
2017-03-21T08:45:32.999Z,300
2017-03-21T08:46:13.494Z,305
2017-03-21T08:46:53.969Z,300
2017-03-21T08:47:34.488Z,280
2017-03-21T08:48:14.976Z,260
2017-03-21T08:48:55.471Z,260
2017-03-21T08:49:35.933Z,265
2017-03-21T08:50:16.398Z,275
2017-03-21T08:50:56.899Z,285
2017-03-21T08:51:37.362Z,295
2017-03-21T08:52:17.780Z,305
2017-03-21T08:52:58.221Z,315
2017-03-21T08:53:38.707Z,315
2017-03-21T08:54:19.171Z,310
2017-03-21T08:54:59.688Z,305
2017-03-21T08:55:40.184Z,305
2017-03-21T08:56:20.651Z,305
2017-03-21T08:57:01.126Z,305
2017-03-21T08:57:41.588Z,310
2017-03-21T08:58:22.083Z,315
2017-03-21T08:59:02.565Z,315
2017-03-21T08:59:43.063Z,315
2017-03-21T09:00:23.541Z,315
2017-03-21T09:01:04.030Z,320
2017-03-21T09:01:44.496Z,320
2017-03-21T09:02:25.012Z,320
2017-03-21T09:03:05.517Z,325
2017-03-21T09:03:46.003Z,315
2017-03-21T09:04:26.480Z,315
2017-03-21T09:05:07.076Z,315
2017-03-21T09:05:47.560Z,315
2017-03-21T09:06:28.052Z,320
2017-03-21T09:07:08.539Z,320
2017-03-21T09:07:49.040Z,320
2017-03-21T09:08:29.513Z,320
2017-03-21T09:09:09.947Z,325
2017-03-21T09:09:50.429Z,330
2017-03-21T09:10:30.913Z,335
2017-03-21T09:11:11.406Z,340
2017-03-21T09:11:51.860Z,340
2017-03-21T09:12:32.346Z,335
2017-03-21T09:13:12.906Z,335
2017-03-21T09:13:53.408Z,330
2017-03-21T09:16:26.431Z,330
2017-03-21T09:17:06.926Z,345
2017-03-21T09:17:47.402Z,360
2017-03-21T09:18:27.945Z,380
2017-03-21T09:19:08.421Z,395
2017-03-21T09:19:48.890Z,415
2017-03-21T09:20:29.373Z,435
2017-03-21T09:21:09.868Z,460
2017-03-21T09:21:50.292Z,480
2017-03-21T09:22:30.759Z,500
2017-03-21T09:23:11.230Z,515
2017-03-21T09:23:51.679Z,525
2017-03-21T09:24:32.226Z,520
2017-03-21T09:25:12.738Z,520
2017-03-21T09:25:53.287Z,525
2017-03-21T09:26:33.765Z,535
2017-03-21T09:27:14.288Z,550
2017-03-21T09:27:54.828Z,530
2017-03-21T09:28:35.297Z,520
2017-03-21T09:29:15.785Z,515
2017-03-21T09:29:56.292Z,505
2017-03-21T09:30:36.778Z,465
2017-03-21T09:31:17.279Z,440
2017-03-21T09:31:57.731Z,430
2017-03-21T09:32:38.242Z,415
2017-03-21T09:34:51.029Z,395
2017-03-21T09:35:31.490Z,390
2017-03-21T09:36:12.002Z,400
2017-03-21T09:36:52.504Z,405
2017-03-21T09:37:33.021Z,415
2017-03-21T09:38:13.501Z,425
2017-03-21T09:38:54.019Z,425
2017-03-21T09:39:34.543Z,425
2017-03-21T09:40:15.019Z,425
2017-03-21T09:40:55.485Z,420
2017-03-21T09:41:35.935Z,420
2017-03-21T09:42:16.400Z,420
2017-03-21T09:42:56.952Z,425
2017-03-21T09:43:37.444Z,420
2017-03-21T09:44:17.930Z,430
2017-03-21T09:44:58.456Z,410
2017-03-21T09:45:38.911Z,405
2017-03-21T09:46:19.396Z,405
2017-03-21T09:46:59.890Z,395
2017-03-21T09:47:40.372Z,400
2017-03-21T09:48:20.865Z,395
2017-03-21T09:49:01.363Z,400
2017-03-21T09:49:41.925Z,405
2017-03-21T09:50:22.459Z,390
2017-03-21T09:51:03.006Z,380
2017-03-21T09:51:43.512Z,350
2017-03-21T09:52:24.005Z,325
2017-03-21T09:53:04.586Z,310
2017-03-21T09:53:45.752Z,335
2017-03-21T09:54:26.368Z,385
2017-03-21T09:55:06.926Z,390
2017-03-21T09:55:48.321Z,370
2017-03-21T09:56:28.900Z,340
2017-03-21T09:57:09.445Z,315
2017-03-21T09:57:50.044Z,315
2017-03-21T09:58:30.616Z,310
2017-03-21T09:59:11.174Z,295
2017-03-21T09:59:51.762Z,295
2017-03-21T10:00:32.349Z,270
2017-03-21T10:01:12.904Z,235
2017-03-21T10:01:53.428Z,220
2017-03-21T10:02:33.925Z,230
2017-03-21T10:03:14.479Z,230
2017-03-21T10:03:54.992Z,230
2017-03-21T10:06:07.745Z,260
2017-03-21T10:06:48.229Z,255
2017-03-21T10:07:28.733Z,265
2017-03-21T10:08:09.226Z,240
2017-03-21T10:08:49.709Z,220
2017-03-21T10:09:30.205Z,210